createdAt,value
2019-05-07T00:00:45.247Z,13.32
2019-05-07T00:03:14.944Z,13.43
2019-05-07T00:05:44.670Z,13.72
2019-05-07T00:08:14.368Z,14.38
2019-05-07T00:10:43.979Z,13.83
2019-05-07T00:13:13.400Z,13.15
2019-05-07T00:15:43.097Z,13.62
2019-05-07T00:18:12.914Z,13.45
2019-05-07T00:20:42.713Z,13.90
2019-05-07T00:23:12.516Z,14.25
2019-05-07T00:25:42.302Z,14.03
2019-05-07T00:28:12.357Z,13.28
2019-05-07T00:30:42.646Z,13.43
2019-05-07T00:33:13.136Z,13.32
2019-05-07T00:35:44.562Z,13.32
2019-05-07T00:38:18.877Z,12.85
2019-05-07T00:40:51.994Z,13.03
2019-05-07T00:43:22.869Z,12.57
2019-05-07T00:45:56.862Z,12.75
2019-05-07T00:48:25.513Z,12.45
2019-05-07T00:50:56.460Z,12.43
2019-05-07T00:53:26.148Z,11.55
2019-05-07T00:55:55.321Z,12.40
2019-05-07T00:58:26.902Z,11.38
2019-05-07T01:00:56.411Z,11.55
2019-05-07T01:03:26.230Z,11.25
2019-05-07T01:05:55.937Z,10.68
2019-05-07T01:08:25.749Z,11.05
2019-05-07T01:10:55.350Z,11.20
2019-05-07T01:13:25.170Z,10.63
2019-05-07T01:15:54.981Z,10.82
2019-05-07T01:18:24.785Z,10.38
2019-05-07T01:20:54.406Z,11.10
2019-05-07T01:23:24.048Z,10.23
2019-05-07T01:25:53.455Z,10.80
2019-05-07T01:28:23.113Z,10.23
2019-05-07T01:30:53.087Z,10.38
2019-05-07T01:33:24.026Z,10.35
2019-05-07T01:36:07.303Z,10.13
2019-05-07T01:38:37.110Z,10.53
2019-05-07T01:41:06.390Z,10.30
2019-05-07T01:43:35.761Z,10.08
2019-05-07T01:46:05.422Z,9.43
2019-05-07T01:48:34.677Z,9.48
2019-05-07T01:51:04.081Z,9.88
2019-05-07T01:53:33.345Z,9.88
2019-05-07T01:56:03.428Z,9.40
2019-05-07T01:58:33.440Z,10.28
2019-05-07T02:01:03.283Z,9.58
2019-05-07T02:03:42.004Z,9.83
2019-05-07T02:06:16.514Z,9.93
2019-05-07T02:08:52.913Z,9.45
2019-05-07T02:11:26.584Z,9.50
2019-05-07T02:13:57.071Z,9.73
2019-05-07T02:16:26.830Z,9.53
2019-05-07T02:18:56.310Z,9.55
2019-05-07T02:21:25.918Z,9.35
2019-05-07T02:23:55.646Z,10.05
2019-05-07T02:26:25.126Z,8.78
2019-05-07T02:28:54.467Z,9.00
2019-05-07T02:31:23.870Z,8.60
2019-05-07T02:33:54.290Z,8.95
2019-05-07T02:36:24.195Z,9.35
2019-05-07T02:39:03.775Z,8.78
2019-05-07T02:41:36.323Z,8.73
2019-05-07T02:44:06.125Z,8.88
2019-05-07T02:46:55.915Z,9.18
2019-05-07T02:49:26.957Z,8.40
2019-05-07T02:51:57.942Z,8.10
2019-05-07T02:54:29.337Z,8.80
2019-05-07T02:56:58.724Z,8.30
2019-05-07T02:59:28.449Z,8.25
2019-05-07T03:01:58.070Z,8.55
2019-05-07T03:04:27.377Z,8.53
2019-05-07T03:06:57.994Z,7.58
2019-05-07T03:09:27.702Z,7.67
2019-05-07T03:11:57.517Z,8.30
2019-05-07T03:14:26.934Z,7.75
2019-05-07T03:16:56.636Z,8.40
2019-05-07T03:19:26.861Z,8.60
2019-05-07T03:21:56.664Z,8.13
2019-05-07T03:24:39.736Z,8.40
2019-05-07T03:27:09.002Z,7.60
2019-05-07T03:29:39.940Z,7.87
2019-05-07T03:32:29.191Z,8.65
2019-05-07T03:35:05.884Z,8.23
2019-05-07T03:37:36.148Z,7.77
2019-05-07T03:40:06.712Z,7.62
2019-05-07T03:42:36.438Z,7.92
2019-05-07T03:45:13.951Z,7.20
2019-05-07T03:47:48.237Z,7.33
2019-05-07T03:50:17.481Z,7.30
2019-05-07T03:52:47.152Z,7.78
2019-05-07T03:55:16.521Z,7.53
2019-05-07T03:57:46.155Z,6.90
2019-05-07T04:00:15.875Z,7.70
2019-05-07T04:02:45.681Z,7.47
2019-05-07T04:05:15.393Z,6.92
2019-05-07T04:07:45.097Z,7.30
2019-05-07T04:10:15.459Z,7.08
2019-05-07T04:12:44.882Z,7.37
2019-05-07T04:15:18.806Z,7.17
2019-05-07T04:17:46.100Z,7.75
2019-05-07T04:20:15.910Z,7.37
2019-05-07T04:22:45.289Z,7.37
2019-05-07T04:25:16.661Z,7.55
2019-05-07T04:27:52.699Z,7.20
2019-05-07T04:30:23.609Z,7.45
2019-05-07T04:32:55.002Z,6.85
2019-05-07T04:35:29.418Z,7.95
2019-05-07T04:38:02.145Z,7.28
2019-05-07T04:40:33.644Z,7.55
2019-05-07T04:43:02.712Z,8.05
2019-05-07T04:45:33.692Z,8.05
2019-05-07T04:48:03.706Z,7.95
2019-05-07T04:50:43.104Z,8.23
2019-05-07T04:53:06.304Z,7.00
2019-05-07T04:55:36.116Z,6.65
2019-05-07T04:58:08.878Z,7.42
2019-05-07T05:00:36.809Z,7.40
2019-05-07T05:03:26.334Z,7.60
2019-05-07T05:05:56.190Z,6.97
2019-05-07T05:08:25.963Z,7.80
2019-05-07T05:10:55.812Z,7.85
2019-05-07T05:13:25.591Z,7.97
2019-05-07T05:15:55.202Z,7.55
2019-05-07T05:18:24.805Z,7.75
2019-05-07T05:20:55.793Z,7.15
2019-05-07T05:23:35.998Z,7.80
2019-05-07T05:26:05.808Z,7.25
2019-05-07T05:28:35.422Z,7.42
2019-05-07T05:31:06.736Z,7.42
2019-05-07T05:33:36.468Z,7.65
2019-05-07T05:36:06.285Z,6.92
2019-05-07T05:38:35.893Z,7.53
2019-05-07T05:41:05.506Z,7.70
2019-05-07T05:43:36.949Z,7.50
2019-05-07T05:46:08.053Z,6.80
2019-05-07T05:48:37.516Z,7.87
2019-05-07T05:51:24.211Z,7.60
2019-05-07T05:53:58.425Z,7.87
2019-05-07T05:56:29.784Z,6.50
2019-05-07T05:59:24.171Z,6.70
2019-05-07T06:02:03.383Z,7.85
2019-05-07T06:04:43.039Z,6.80
2019-05-07T06:07:22.727Z,7.42
2019-05-07T06:09:56.894Z,7.22
2019-05-07T06:12:43.904Z,6.92
2019-05-07T06:15:16.902Z,7.55
2019-05-07T06:18:17.923Z,7.33
2019-05-07T06:20:47.497Z,7.72
2019-05-07T06:23:22.463Z,7.20
2019-05-07T06:25:52.558Z,7.22
2019-05-07T06:28:22.479Z,7.67
2019-05-07T06:30:52.894Z,7.05
2019-05-07T06:33:23.120Z,7.15
2019-05-07T06:35:52.584Z,7.35
2019-05-07T06:38:23.310Z,6.65
2019-05-07T06:41:06.630Z,7.20
2019-05-07T06:43:46.685Z,7.20
2019-05-07T06:46:16.401Z,6.53
2019-05-07T06:48:46.426Z,6.78
2019-05-07T06:51:17.679Z,7.12
2019-05-07T06:53:47.487Z,6.70
2019-05-07T06:56:17.280Z,6.40
2019-05-07T06:59:02.216Z,6.55
2019-05-07T07:01:33.809Z,6.90
2019-05-07T07:04:14.374Z,7.25
2019-05-07T07:06:48.593Z,6.15
2019-05-07T07:09:22.110Z,6.83
2019-05-07T07:12:08.946Z,6.70
2019-05-07T07:14:38.304Z,6.55
2019-05-07T07:17:08.014Z,6.40
2019-05-07T07:19:37.324Z,5.65
2019-05-07T07:22:07.027Z,6.17
2019-05-07T07:24:37.653Z,6.03
2019-05-07T07:27:07.361Z,6.28
2019-05-07T07:29:38.707Z,6.50
2019-05-07T07:32:12.655Z,6.47
2019-05-07T07:34:43.347Z,5.42
2019-05-07T07:37:17.371Z,6.03
2019-05-07T07:39:47.069Z,6.25
2019-05-07T07:42:16.682Z,6.20
2019-05-07T07:44:46.758Z,5.85
2019-05-07T07:47:16.410Z,5.47
2019-05-07T07:49:46.500Z,5.78
2019-05-07T07:52:16.234Z,5.30
2019-05-07T07:54:46.049Z,5.83
2019-05-07T07:57:26.616Z,6.17
2019-05-07T07:59:57.640Z,6.05
2019-05-07T08:02:29.002Z,6.12
2019-05-07T08:04:58.717Z,6.37
2019-05-07T08:07:28.417Z,6.35
2019-05-07T08:09:58.233Z,6.20
2019-05-07T08:12:28.063Z,6.67
2019-05-07T08:15:13.288Z,5.92
2019-05-07T08:17:29.010Z,6.40
2019-05-07T08:19:58.825Z,6.17
2019-05-07T08:22:28.435Z,6.03
2019-05-07T08:24:58.238Z,5.90
2019-05-07T08:27:28.965Z,6.03
2019-05-07T08:29:58.284Z,6.33
2019-05-07T08:32:29.240Z,6.40
2019-05-07T08:35:14.332Z,5.87
2019-05-07T08:37:44.001Z,6.28
2019-05-07T08:40:13.819Z,6.10
2019-05-07T08:42:43.611Z,5.60
2019-05-07T08:45:32.642Z,5.92
2019-05-07T08:48:12.477Z,5.92
2019-05-07T08:50:41.947Z,6.20
2019-05-07T08:53:13.255Z,5.25
2019-05-07T08:55:43.018Z,5.95
2019-05-07T08:58:12.801Z,5.62
2019-05-07T09:00:42.614Z,5.37
2019-05-07T09:03:20.117Z,5.70
2019-05-07T09:05:43.669Z,6.12
2019-05-07T09:08:13.081Z,5.37
2019-05-07T09:10:42.332Z,5.55
2019-05-07T09:13:12.595Z,5.75
2019-05-07T09:15:42.586Z,5.65
2019-05-07T09:18:12.459Z,5.20
2019-05-07T09:20:42.578Z,5.30
2019-05-07T09:23:12.384Z,5.03
2019-05-07T09:25:46.980Z,4.92
2019-05-07T09:28:18.647Z,6.03
2019-05-07T09:30:52.272Z,4.87
2019-05-07T09:33:29.221Z,5.08
2019-05-07T09:35:58.928Z,6.05
2019-05-07T09:38:28.205Z,5.33
2019-05-07T09:40:58.345Z,4.80
2019-05-07T09:43:27.953Z,4.62
2019-05-07T09:45:57.241Z,4.87
2019-05-07T09:48:27.068Z,4.60
2019-05-07T09:50:56.682Z,5.78
2019-05-07T09:53:26.292Z,5.33
2019-05-07T09:55:56.201Z,5.28
2019-05-07T09:58:35.672Z,5.00
2019-05-07T10:00:57.461Z,4.67
2019-05-07T10:03:27.174Z,4.62
2019-05-07T10:05:57.002Z,4.33
2019-05-07T10:08:26.697Z,5.08
2019-05-07T10:10:56.510Z,5.10
2019-05-07T10:13:30.417Z,4.70
2019-05-07T10:18:28.797Z,4.40
2019-05-07T10:20:58.433Z,4.47
2019-05-07T10:23:28.172Z,4.37
2019-05-07T10:25:58.042Z,4.85
2019-05-07T10:28:27.662Z,4.62
2019-05-07T10:30:57.154Z,4.30
2019-05-07T10:33:27.586Z,4.28
2019-05-07T10:35:58.067Z,4.65
2019-05-07T10:38:27.828Z,4.60
2019-05-07T10:40:57.634Z,4.62
2019-05-07T10:43:27.451Z,5.03
2019-05-07T10:46:14.895Z,4.70
2019-05-07T10:48:48.717Z,4.42
2019-05-07T10:51:18.409Z,4.62
2019-05-07T10:53:48.201Z,4.17
2019-05-07T10:56:18.014Z,4.60
2019-05-07T10:58:48.846Z,4.20
2019-05-07T11:01:22.281Z,4.30
2019-05-07T11:03:51.798Z,4.00
2019-05-07T11:06:22.161Z,4.30
2019-05-07T11:08:52.111Z,4.53
2019-05-07T11:11:21.911Z,4.17
2019-05-07T11:13:55.513Z,4.90
2019-05-07T11:16:24.708Z,4.58
2019-05-07T11:18:54.520Z,4.50
2019-05-07T11:21:32.961Z,4.60
2019-05-07T11:24:03.233Z,4.72
2019-05-07T11:26:33.280Z,4.08
2019-05-07T11:29:03.094Z,4.58
2019-05-07T11:31:33.235Z,4.10
2019-05-07T11:34:04.145Z,4.25
2019-05-07T11:36:34.431Z,4.10
2019-05-07T11:39:05.709Z,4.58
2019-05-07T11:41:46.686Z,4.83
2019-05-07T11:44:23.028Z,4.47
2019-05-07T11:47:12.285Z,3.92
2019-05-07T11:49:59.216Z,4.35
2019-05-07T11:52:35.186Z,4.33
2019-05-07T11:55:03.131Z,4.27
2019-05-07T11:57:32.987Z,3.85
2019-05-07T12:00:03.167Z,4.55
2019-05-07T12:02:32.807Z,3.58
2019-05-07T12:05:02.301Z,4.30
2019-05-07T12:07:32.774Z,4.55
2019-05-07T12:10:05.018Z,4.70
2019-05-07T12:12:34.826Z,4.90
2019-05-07T12:15:04.630Z,4.75
2019-05-07T12:17:35.266Z,5.08
2019-05-07T12:20:05.582Z,4.87
2019-05-07T12:22:52.165Z,4.80
2019-05-07T12:25:22.309Z,4.10
2019-05-07T12:27:52.739Z,4.10
2019-05-07T12:30:32.623Z,4.78
2019-05-07T12:33:22.469Z,4.10
2019-05-07T12:35:52.853Z,4.37
2019-05-07T12:38:22.610Z,4.42
2019-05-07T12:40:52.504Z,4.50
2019-05-07T12:43:21.924Z,4.33
2019-05-07T12:45:52.494Z,5.30
2019-05-07T12:48:22.262Z,4.58
2019-05-07T12:50:52.350Z,5.05
2019-05-07T12:53:31.454Z,4.33
2019-05-07T12:56:05.535Z,4.58
2019-05-07T12:58:35.242Z,4.65
2019-05-07T13:01:09.247Z,4.30
2019-05-07T13:03:42.654Z,5.03
2019-05-07T13:06:11.703Z,4.37
2019-05-07T13:08:42.014Z,4.60
2019-05-07T13:11:13.230Z,4.97
2019-05-07T13:13:43.020Z,4.50
2019-05-07T13:16:12.941Z,4.70
2019-05-07T13:18:42.650Z,4.65
2019-05-07T13:21:12.263Z,4.60
2019-05-07T13:23:42.256Z,4.72
2019-05-07T13:26:12.077Z,4.55
2019-05-07T13:28:41.991Z,4.87
2019-05-07T13:31:13.143Z,4.80
2019-05-07T13:33:42.566Z,4.62
2019-05-07T13:36:12.362Z,4.83
2019-05-07T13:38:59.776Z,4.55
2019-05-07T13:41:43.427Z,4.58
2019-05-07T13:44:31.781Z,4.55
2019-05-07T13:47:08.641Z,4.67
2019-05-07T13:49:38.249Z,4.95
2019-05-07T13:52:07.862Z,5.12
2019-05-07T13:54:37.664Z,4.20
2019-05-07T13:57:07.411Z,4.70
2019-05-07T13:59:37.194Z,4.20
2019-05-07T14:02:08.445Z,4.40
2019-05-07T14:04:38.249Z,4.37
2019-05-07T14:07:08.882Z,4.30
2019-05-07T14:09:38.488Z,4.65
2019-05-07T14:12:08.102Z,4.08
2019-05-07T14:14:38.641Z,3.85
2019-05-07T14:17:08.337Z,4.47
2019-05-07T14:19:37.835Z,4.33
2019-05-07T14:22:15.282Z,4.55
2019-05-07T14:24:39.016Z,4.15
2019-05-07T14:27:08.819Z,4.45
2019-05-07T14:29:39.670Z,4.67
2019-05-07T14:32:26.049Z,4.22
2019-05-07T14:35:03.544Z,4.42
2019-05-07T14:37:34.898Z,4.35
2019-05-07T14:40:06.327Z,4.50
2019-05-07T14:42:38.460Z,4.50
2019-05-07T14:45:08.526Z,4.25
2019-05-07T14:47:38.245Z,3.80
2019-05-07T14:50:07.976Z,4.25
2019-05-07T14:52:38.407Z,4.30
2019-05-07T14:55:08.190Z,4.75
2019-05-07T14:57:38.106Z,5.12
2019-05-07T15:00:08.530Z,3.80
2019-05-07T15:02:38.342Z,5.17
2019-05-07T15:05:08.166Z,4.12
2019-05-07T15:07:37.464Z,4.00
2019-05-07T15:10:07.470Z,3.98
2019-05-07T15:12:37.494Z,3.87
2019-05-07T15:15:07.249Z,4.62
2019-05-07T15:17:44.703Z,5.33
2019-05-07T15:20:14.510Z,4.50
2019-05-07T15:22:49.978Z,4.30
2019-05-07T15:25:22.536Z,4.47
2019-05-07T15:27:52.731Z,4.37
2019-05-07T15:30:23.685Z,4.55
2019-05-07T15:32:53.297Z,4.70
2019-05-07T15:35:22.914Z,4.20
2019-05-07T15:37:52.623Z,4.12
2019-05-07T15:40:22.637Z,4.45
2019-05-07T15:42:52.610Z,3.50
2019-05-07T15:45:22.065Z,4.05
2019-05-07T15:47:53.293Z,3.98
2019-05-07T15:50:24.250Z,4.75
2019-05-07T15:52:58.551Z,4.12
2019-05-07T15:55:27.961Z,4.67
2019-05-07T15:57:58.393Z,4.08
2019-05-07T16:00:35.877Z,4.22
2019-05-07T16:03:11.859Z,4.00
2019-05-07T16:05:42.450Z,3.92
2019-05-07T16:08:14.220Z,4.03
2019-05-07T16:10:44.852Z,4.00
2019-05-07T16:13:16.318Z,4.05
2019-05-07T16:15:46.009Z,3.75
2019-05-07T16:18:17.377Z,4.00
2019-05-07T16:20:47.178Z,3.70
2019-05-07T16:23:18.116Z,4.12
2019-05-07T16:25:48.242Z,4.00
2019-05-07T16:28:17.943Z,3.77
2019-05-07T16:30:47.662Z,4.30
2019-05-07T16:33:17.486Z,4.00
2019-05-07T16:35:47.188Z,4.80
2019-05-07T16:38:18.140Z,12.50
2019-05-07T16:40:47.762Z,4.50
2019-05-07T16:43:17.433Z,4.33
2019-05-07T16:45:47.268Z,4.10
2019-05-07T16:48:16.959Z,4.37
2019-05-07T16:50:46.660Z,3.80
2019-05-07T16:53:26.575Z,4.37
2019-05-07T16:55:47.312Z,4.22
2019-05-07T16:58:20.593Z,4.08
2019-05-07T17:00:52.772Z,4.35
2019-05-07T17:03:24.335Z,3.87
2019-05-07T17:05:53.717Z,4.12
2019-05-07T17:08:27.742Z,3.92
2019-05-07T17:10:57.449Z,4.37
2019-05-07T17:13:26.739Z,4.30
2019-05-07T17:15:57.518Z,3.87
2019-05-07T17:18:27.437Z,4.00
2019-05-07T17:20:57.218Z,3.95
2019-05-07T17:23:34.439Z,3.77
2019-05-07T17:25:58.383Z,4.10
2019-05-07T17:28:27.886Z,4.15
2019-05-07T17:30:58.521Z,4.28
2019-05-07T17:33:28.322Z,4.10
2019-05-07T17:35:58.137Z,4.58
2019-05-07T17:38:27.549Z,3.98
2019-05-07T17:41:09.916Z,4.30
2019-05-07T17:43:28.699Z,3.70
2019-05-07T17:45:58.307Z,3.77
2019-05-07T17:48:28.126Z,4.80
2019-05-07T17:51:08.384Z,4.30
2019-05-07T17:53:38.190Z,4.37
2019-05-07T17:56:08.139Z,4.55
2019-05-07T17:58:37.890Z,4.92
2019-05-07T18:01:07.643Z,4.85
2019-05-07T18:03:39.085Z,4.67
2019-05-07T18:06:09.206Z,5.08
2019-05-07T18:08:38.487Z,4.95
2019-05-07T18:11:20.224Z,4.70
2019-05-07T18:13:39.458Z,4.60
2019-05-07T18:16:12.153Z,4.33
2019-05-07T18:18:43.232Z,5.37
2019-05-07T18:21:12.995Z,5.00
2019-05-07T18:23:42.796Z,4.95
2019-05-07T18:26:26.337Z,5.42
2019-05-07T18:28:43.866Z,4.70
2019-05-07T18:31:15.834Z,4.72
2019-05-07T18:33:49.427Z,5.55
2019-05-07T18:36:19.351Z,5.12
2019-05-07T18:38:49.048Z,5.25
2019-05-07T18:41:18.867Z,6.20
2019-05-07T18:43:48.421Z,5.20
2019-05-07T18:46:18.294Z,5.90
2019-05-07T18:48:48.106Z,5.80
2019-05-07T18:51:17.914Z,6.08
2019-05-07T18:53:47.724Z,6.25
2019-05-07T18:56:17.133Z,6.25
2019-05-07T18:58:46.848Z,6.12
2019-05-07T19:01:18.485Z,6.60
2019-05-07T19:03:48.677Z,6.47
2019-05-07T19:06:18.012Z,6.40
2019-05-07T19:08:48.129Z,6.17
2019-05-07T19:11:17.941Z,6.58
2019-05-07T19:13:47.760Z,7.08
2019-05-07T19:16:17.567Z,7.33
2019-05-07T19:18:47.021Z,6.35
2019-05-07T19:21:16.802Z,6.92
2019-05-07T19:23:46.599Z,7.55
2019-05-07T19:26:16.042Z,7.75
2019-05-07T19:28:45.610Z,7.47
2019-05-07T19:31:15.936Z,8.10
2019-05-07T19:33:45.758Z,8.20
2019-05-07T19:36:15.139Z,8.18
2019-05-07T19:38:44.605Z,7.72
2019-05-07T19:41:14.253Z,8.00
2019-05-07T19:43:44.069Z,8.05
2019-05-07T19:46:13.850Z,8.25
2019-05-07T19:48:44.133Z,8.10
2019-05-07T19:51:13.920Z,8.13
2019-05-07T19:53:44.583Z,7.87
2019-05-07T19:56:19.326Z,8.18
2019-05-07T19:58:52.431Z,8.05
2019-05-07T20:01:24.012Z,8.33
2019-05-07T20:03:53.957Z,8.38
2019-05-07T20:06:25.043Z,7.78
2019-05-07T20:09:08.985Z,8.90
2019-05-07T20:11:32.001Z,9.15
2019-05-07T20:14:02.408Z,9.43
2019-05-07T20:16:32.903Z,8.95
2019-05-07T20:19:03.608Z,8.63
2019-05-07T20:21:36.145Z,8.20
2019-05-07T20:24:07.935Z,8.40
2019-05-07T20:26:38.028Z,9.35
2019-05-07T20:29:08.447Z,8.83
2019-05-07T20:31:38.474Z,8.90
2019-05-07T20:34:08.840Z,9.48
2019-05-07T20:36:38.665Z,8.68
2019-05-07T20:39:09.734Z,8.58
2019-05-07T20:41:42.429Z,8.70
2019-05-07T20:44:12.629Z,8.85
2019-05-07T20:46:42.487Z,9.08
2019-05-07T20:49:13.235Z,8.70
2019-05-07T20:51:43.109Z,8.63
2019-05-07T20:54:24.057Z,9.18
2019-05-07T20:57:07.917Z,8.70
2019-05-07T20:59:37.734Z,9.23
2019-05-07T21:02:07.547Z,9.40
2019-05-07T21:04:36.941Z,9.15
2019-05-07T21:07:06.757Z,9.03
2019-05-07T21:09:36.008Z,10.00
2019-05-07T21:12:05.434Z,9.93
2019-05-07T21:14:35.185Z,9.65
2019-05-07T21:17:04.977Z,9.28
2019-05-07T21:19:34.592Z,9.85
2019-05-07T21:22:04.413Z,9.33
2019-05-07T21:24:33.721Z,9.73
2019-05-07T21:27:03.429Z,9.63
2019-05-07T21:29:33.121Z,9.18
2019-05-07T21:32:03.273Z,9.53
2019-05-07T21:34:33.161Z,10.25
2019-05-07T21:37:03.385Z,9.50
2019-05-07T21:39:33.392Z,9.45
2019-05-07T21:42:03.107Z,9.83
2019-05-07T21:44:33.027Z,9.58
2019-05-07T21:47:03.937Z,9.63
2019-05-07T21:49:33.879Z,10.10
2019-05-07T21:52:03.586Z,10.23
2019-05-07T21:54:37.492Z,10.45
2019-05-07T21:57:08.847Z,10.75
2019-05-07T21:59:39.836Z,10.03
2019-05-07T22:02:16.970Z,10.72
2019-05-07T22:04:46.773Z,10.08
2019-05-07T22:07:16.381Z,10.00
2019-05-07T22:09:45.642Z,10.23
2019-05-07T22:12:15.033Z,11.08
2019-05-07T22:14:44.290Z,10.95
2019-05-07T22:17:13.998Z,10.98
2019-05-07T22:19:44.837Z,10.82
2019-05-07T22:22:14.447Z,11.40
2019-05-07T22:24:44.153Z,10.98
2019-05-07T22:27:13.873Z,11.12
2019-05-07T22:29:43.674Z,11.05
2019-05-07T22:32:22.379Z,10.82
2019-05-07T22:35:09.017Z,11.48
2019-05-07T22:37:40.349Z,11.45
2019-05-07T22:40:26.650Z,11.78
2019-05-07T22:42:57.893Z,10.88
2019-05-07T22:45:27.705Z,10.93
2019-05-07T22:47:57.425Z,11.05
2019-05-07T22:50:26.856Z,11.12
2019-05-07T22:52:56.560Z,11.50
2019-05-07T22:55:26.145Z,11.95
2019-05-07T22:58:06.492Z,10.82
2019-05-07T23:00:37.677Z,10.75
2019-05-07T23:03:07.462Z,10.85
2019-05-07T23:05:36.818Z,11.85
2019-05-07T23:08:06.467Z,11.43
2019-05-07T23:10:36.174Z,11.53
2019-05-07T23:13:05.451Z,11.50
2019-05-07T23:15:34.864Z,11.73
2019-05-07T23:18:04.686Z,12.30
2019-05-07T23:20:34.304Z,12.55
2019-05-07T23:23:04.006Z,11.93
2019-05-07T23:25:33.710Z,11.97
2019-05-07T23:28:05.244Z,12.47
2019-05-07T23:30:35.089Z,12.07
2019-05-07T23:33:04.721Z,12.45
2019-05-07T23:35:34.503Z,12.43
2019-05-07T23:38:04.318Z,12.68
2019-05-07T23:40:52.592Z,12.88
2019-05-07T23:43:23.299Z,13.90
2019-05-07T23:45:53.647Z,14.10
2019-05-07T23:48:22.957Z,14.45
2019-05-07T23:50:52.673Z,13.62
2019-05-07T23:53:22.609Z,14.15
2019-05-07T23:55:52.360Z,13.85
2019-05-07T23:58:22.995Z,13.25
